Time;durP1;ratioP1;P1;durP2;ratioP2;P2;SDS_P1;SDS_P2;PMS_P1;PMS_P2;Temp;Humidity;BMP_temperature;BMP_pressure;BME280_temperature;BME280_humidity;BME280_pressure;Samples;Min_cycle;Max_cycle;Signal;HPM_P1;HPM_P2
2024/03/14 00:00:08;;;;;;;19.27;11.98;;;231.00;2252.80;;;;;;5018410;28;20029;-73
2024/03/14 00:02:35;;;;;;;19.38;12.38;;;231.00;2252.80;;;;;;5018255;28;20030;-71
2024/03/14 00:05:03;;;;;;;18.55;12.68;;;230.90;2252.80;;;;;;5021608;28;20583;-77
2024/03/14 00:07:29;;;;;;;19.13;12.85;;;230.90;2252.80;;;;;;5020236;28;20046;-74
2024/03/14 00:09:54;;;;;;;20.25;12.88;;;230.90;2252.80;;;;;;5038065;28;20141;-71
2024/03/14 00:12:20;;;;;;;20.70;13.25;;;230.90;2252.80;;;;;;5039665;28;20036;-70
2024/03/14 00:14:50;;;;;;;19.80;13.05;;;230.90;2252.80;;;;;;5024754;28;20105;-73
2024/03/14 00:17:19;;;;;;;20.98;12.88;;;230.80;2252.80;;;;;;5028760;28;20014;-71
2024/03/14 00:19:48;;;;;;;20.33;13.55;;;230.80;2252.80;;;;;;5032775;28;20041;-73
2024/03/14 00:22:14;;;;;;;19.65;13.27;;;230.80;2252.80;;;;;;5040937;28;20040;-74
2024/03/14 00:24:46;;;;;;;21.17;12.68;;;230.70;2252.80;;;;;;5033934;28;20022;-69
2024/03/14 00:27:13;;;;;;;19.55;13.20;;;230.70;2252.80;;;;;;5034315;28;20092;-72
2024/03/14 00:29:41;;;;;;;20.35;13.15;;;230.70;2252.80;;;;;;5042423;28;20029;-71
2024/03/14 00:32:07;;;;;;;19.63;13.23;;;230.70;2252.80;;;;;;5041242;28;20072;-72
2024/03/14 00:34:36;;;;;;;19.65;13.05;;;230.60;2252.80;;;;;;5035101;28;20029;-72
2024/03/14 00:37:02;;;;;;;20.65;13.25;;;230.60;2252.80;;;;;;5026323;28;20067;-71
2024/03/14 00:39:28;;;;;;;22.40;13.60;;;230.60;2252.80;;;;;;5035282;28;20029;-72
2024/03/14 00:41:54;;;;;;;23.10;13.43;;;230.60;2252.80;;;;;;5038834;28;20027;-72
2024/03/14 00:44:20;;;;;;;21.45;13.48;;;230.50;2252.80;;;;;;5041118;28;20057;-73
2024/03/14 00:46:46;;;;;;;20.55;13.07;;;230.50;2252.80;;;;;;5031457;28;20309;-71
2024/03/14 00:49:14;;;;;;;20.90;14.48;;;230.50;2252.80;;;;;;5037937;28;20022;-72
2024/03/14 00:51:40;;;;;;;22.38;14.52;;;230.40;2252.80;;;;;;5025687;28;20549;-70
2024/03/14 00:54:06;;;;;;;23.58;14.98;;;230.40;2252.80;;;;;;5034816;28;20041;-75
2024/03/14 00:56:31;;;;;;;23.25;14.60;;;205.70;2252.80;;;;;;5033782;28;20040;-71
2024/03/14 00:58:57;;;;;;;23.08;14.38;;;205.60;2252.80;;;;;;5036733;28;20487;-70
2024/03/14 01:01:25;;;;;;;23.65;13.85;;;205.60;2252.80;;;;;;5033452;28;20022;-74
2024/03/14 01:03:52;;;;;;;22.73;14.40;;;205.40;2252.80;;;;;;5039850;28;20040;-72
2024/03/14 01:06:19;;;;;;;22.92;13.93;;;205.60;2252.80;;;;;;5017455;28;20025;-73
2024/03/14 01:08:46;;;;;;;22.27;14.30;;;205.30;2252.80;;;;;;5035830;28;20606;-73
2024/03/14 01:11:11;;;;;;;22.00;14.00;;;205.20;2252.80;;;;;;5043413;28;20053;-73
2024/03/14 01:13:37;;;;;;;23.52;14.65;;;205.30;2252.80;;;;;;5039509;28;20534;-71
2024/03/14 01:16:04;;;;;;;23.90;15.18;;;205.10;2252.80;;;;;;5040796;28;20395;-77
2024/03/14 01:18:30;;;;;;;24.30;15.15;;;205.20;2252.80;;;;;;5034014;28;20034;-77
2024/03/14 01:20:56;;;;;;;23.38;15.05;;;205.10;2252.80;;;;;;5030848;28;20049;-78
2024/03/14 01:23:22;;;;;;;24.45;14.90;;;205.10;2252.80;;;;;;5041122;28;20563;-74
2024/03/14 01:25:49;;;;;;;23.55;14.80;;;205.00;2252.80;;;;;;5035377;28;20026;-78
2024/03/14 01:28:15;;;;;;;23.85;14.75;;;205.10;2252.80;;;;;;5037315;28;20125;-75
2024/03/14 01:30:44;;;;;;;24.10;14.80;;;205.10;2252.80;;;;;;5040799;28;20370;-77
2024/03/14 01:33:10;;;;;;;22.90;14.80;;;;;;;;;;5039270;28;20057;-76
2024/03/14 01:35:36;;;;;;;22.45;13.80;;;;;;;;;;5035464;28;20029;-78
2024/03/14 01:38:02;;;;;;;23.30;14.32;;;;;;;;;;5043784;28;20403;-74
2024/03/14 01:40:29;;;;;;;22.52;14.30;;;;;;;;;;5046464;28;20053;-74
2024/03/14 01:42:56;;;;;;;24.42;14.82;;;;;;;;;;5051539;28;20048;-75
2024/03/14 01:45:22;;;;;;;24.63;15.27;;;;;;;;;;5049752;28;20053;-77
2024/03/14 01:47:49;;;;;;;23.08;14.93;;;205.20;2252.80;;;;;;5039290;28;20041;-76
2024/03/14 01:50:15;;;;;;;23.58;15.60;;;204.90;2252.80;;;;;;5050097;28;20029;-77
2024/03/14 01:52:44;;;;;;;26.23;16.50;;;180.10;2252.80;;;;;;5043580;28;20113;-76
2024/03/14 01:55:10;;;;;;;27.77;16.20;;;180.10;2252.80;;;;;;5047495;28;20036;-76
2024/03/14 01:57:36;;;;;;;43.92;16.58;;;180.00;2252.80;;;;;;5051872;28;20476;-76
2024/03/14 02:00:04;;;;;;;25.83;15.80;;;180.00;2252.80;;;;;;5058546;28;20025;-73
2024/03/14 02:02:35;;;;;;;24.67;15.65;;;180.00;2252.80;;;;;;5048262;28;20010;-72
2024/03/14 02:05:26;;;;;;;25.90;16.02;;;180.00;2252.80;;;;;;5044104;28;20022;-74
2024/03/14 02:07:52;;;;;;;27.88;16.40;;;179.90;2252.80;;;;;;5038989;28;20045;-74
2024/03/14 02:10:23;;;;;;;26.27;16.33;;;179.90;2252.80;;;;;;5043624;28;20029;-77
2024/03/14 02:12:53;;;;;;;27.00;15.63;;;179.80;2252.80;;;;;;5052061;28;20056;-78
2024/03/14 02:15:19;;;;;;;26.98;16.65;;;179.80;2252.80;;;;;;5030424;28;20041;-76
2024/03/14 02:17:45;;;;;;;25.85;15.88;;;179.70;2252.80;;;;;;5051277;28;20087;-76
2024/03/14 02:20:14;;;;;;;28.00;16.15;;;179.70;2252.80;;;;;;5052661;28;20001;-75
2024/03/14 02:22:46;;;;;;;25.70;15.68;;;179.70;2252.80;;;;;;5040466;28;20013;-76
2024/03/14 02:25:13;;;;;;;27.52;16.33;;;179.60;2252.80;;;;;;5052504;28;20080;-76
2024/03/14 02:27:42;;;;;;;26.70;15.48;;;179.60;2252.80;;;;;;5047274;28;20026;-77
2024/03/14 02:30:08;;;;;;;27.60;15.32;;;179.50;2252.80;;;;;;5039534;28;20026;-77
2024/03/14 02:32:33;;;;;;;26.33;15.52;;;179.60;2252.80;;;;;;5041658;28;20237;-76
2024/03/14 02:35:02;;;;;;;28.33;15.82;;;179.50;2252.80;;;;;;5045285;28;20041;-76
2024/03/14 02:37:30;;;;;;;27.42;16.33;;;179.50;2252.80;;;;;;5044800;28;20033;-74
2024/03/14 02:39:59;;;;;;;28.33;15.98;;;179.40;2252.80;;;;;;5042130;28;20026;-75
2024/03/14 02:42:25;;;;;;;30.33;16.10;;;179.40;2252.80;;;;;;5032101;28;20056;-77
2024/03/14 02:44:51;;;;;;;30.05;16.75;;;179.30;2252.80;;;;;;5040808;28;20025;-76
2024/03/14 02:47:17;;;;;;;29.52;15.73;;;179.30;2252.80;;;;;;5041519;28;20090;-77
2024/03/14 02:49:46;;;;;;;28.30;16.20;;;179.30;2252.80;;;;;;5042593;28;20075;-77
2024/03/14 02:52:14;;;;;;;25.25;15.68;;;179.30;2252.80;;;;;;5039901;28;20041;-76
2024/03/14 02:54:40;;;;;;;26.40;16.33;;;179.20;2252.80;;;;;;5037180;28;20018;-74
2024/03/14 02:57:06;;;;;;;27.70;16.10;;;179.20;2252.80;;;;;;5055745;28;20021;-74
2024/03/14 02:59:32;;;;;;;29.15;16.58;;;179.20;2252.80;;;;;;5039430;28;20029;-73
2024/03/14 03:01:58;;;;;;;29.65;15.85;;;154.50;2252.80;;;;;;5038181;28;20026;-77
2024/03/14 03:04:24;;;;;;;27.10;16.15;;;154.50;2252.80;;;;;;5046048;28;20025;-75
2024/03/14 03:06:53;;;;;;;28.05;16.17;;;154.50;2252.80;;;;;;5060447;28;20037;-75
2024/03/14 03:09:22;;;;;;;28.60;16.40;;;154.50;2252.80;;;;;;5067656;28;20073;-76
2024/03/14 03:11:48;;;;;;;27.13;16.20;;;154.50;2252.80;;;;;;5065907;28;20052;-74
2024/03/14 03:14:13;;;;;;;30.02;17.10;;;154.50;2252.80;;;;;;5052457;28;20033;-76
2024/03/14 03:16:39;;;;;;;26.20;15.48;;;154.50;2252.80;;;;;;5053674;28;20029;-75
2024/03/14 03:19:05;;;;;;;27.05;15.77;;;154.50;2252.80;;;;;;5049309;28;20049;-75
2024/03/14 03:21:31;;;;;;;28.40;16.15;;;154.50;2252.80;;;;;;5038562;28;20033;-75
2024/03/14 03:23:57;;;;;;;26.02;15.57;;;154.50;2252.80;;;;;;5043369;28;20095;-75
2024/03/14 03:26:25;;;;;;;27.00;16.20;;;154.40;2252.80;;;;;;5045572;28;20481;-75
2024/03/14 03:28:51;;;;;;;27.63;16.05;;;154.40;2252.80;;;;;;5034465;28;20075;-74
2024/03/14 03:31:17;;;;;;;28.25;16.02;;;154.40;2252.80;;;;;;5031942;28;20022;-72
2024/03/14 03:33:43;;;;;;;26.80;15.63;;;154.40;2252.80;;;;;;5037737;28;20045;-73
2024/03/14 03:36:09;;;;;;;27.75;16.55;;;154.40;2252.80;;;;;;5033536;28;20025;-76
2024/03/14 03:38:38;;;;;;;30.25;16.40;;;154.40;2252.80;;;;;;5064968;28;20029;-70
2024/03/14 03:41:06;;;;;;;27.85;16.33;;;154.40;2252.80;;;;;;5063674;28;20034;-71
2024/03/14 03:43:32;;;;;;;27.92;16.00;;;154.40;2252.80;;;;;;5056793;28;20029;-76
2024/03/14 03:45:58;;;;;;;27.15;16.13;;;154.40;2252.80;;;;;;5048013;28;20021;-76
2024/03/14 03:48:24;;;;;;;28.25;16.75;;;154.40;2252.80;;;;;;5047135;28;20030;-72
2024/03/14 03:50:50;;;;;;;27.75;16.10;;;154.40;2252.80;;;;;;5039778;28;20037;-75
2024/03/14 03:53:18;;;;;;;29.10;16.10;;;154.40;2252.80;;;;;;5052721;28;20044;-73
2024/03/14 03:55:44;;;;;;;25.67;15.40;;;154.40;2252.80;;;;;;5041790;28;20050;-78
2024/03/14 03:58:11;;;;;;;27.10;15.40;;;154.40;2252.80;;;;;;5041161;28;20033;-75
2024/03/14 04:00:44;;;;;;;27.08;15.88;;;154.40;2252.80;;;;;;5040598;28;20021;-77
2024/03/14 04:03:12;;;;;;;26.90;15.43;;;154.40;2252.80;;;;;;5030888;28;20037;-74
2024/03/14 04:05:39;;;;;;;26.38;15.32;;;154.40;2252.80;;;;;;5034741;28;20060;-77
2024/03/14 04:08:05;;;;;;;28.40;15.73;;;154.20;2252.80;;;;;;5047084;28;20033;-76
2024/03/14 04:10:31;;;;;;;26.63;15.20;;;154.40;2252.80;;;;;;5049226;28;20036;-74
2024/03/14 04:12:58;;;;;;;29.13;16.38;;;154.40;2252.80;;;;;;5055903;28;20051;-74
2024/03/14 04:15:24;;;;;;;29.35;15.75;;;154.40;2252.80;;;;;;5040752;28;20032;-72
2024/03/14 04:17:51;;;;;;;28.17;15.73;;;154.40;2252.80;;;;;;5040829;28;20065;-74
2024/03/14 04:20:17;;;;;;;28.13;16.15;;;154.30;2252.80;;;;;;5036813;28;20048;-71
2024/03/14 04:22:44;;;;;;;29.00;16.50;;;154.30;2252.80;;;;;;5055072;28;20033;-72
2024/03/14 04:25:17;;;;;;;26.88;16.50;;;154.30;2252.80;;;;;;5040169;28;20034;-74
2024/03/14 04:27:52;;;;;;;28.13;15.65;;;154.30;2252.80;;;;;;5039568;28;20102;-77
2024/03/14 04:30:21;;;;;;;27.02;15.32;;;154.30;2252.80;;;;;;5047002;28;20021;-76
2024/03/14 04:32:50;;;;;;;29.92;16.02;;;154.30;2252.80;;;;;;5038724;28;20025;-74
2024/03/14 04:35:17;;;;;;;29.10;16.02;;;154.30;2252.80;;;;;;5047028;28;20032;-75
2024/03/14 04:37:49;;;;;;;29.75;15.93;;;154.30;2252.80;;;;;;5040246;28;20021;-76
2024/03/14 04:40:19;;;;;;;30.75;16.05;;;154.20;2252.80;;;;;;5043416;28;20362;-72
2024/03/14 04:42:46;;;;;;;26.45;15.43;;;154.20;2252.80;;;;;;5032812;28;20034;-76
2024/03/14 04:45:17;;;;;;;26.95;16.08;;;154.20;2252.80;;;;;;5024047;28;20393;-77
2024/03/14 04:47:46;;;;;;;31.50;16.80;;;154.30;2252.80;;;;;;5018119;28;20496;-75
2024/03/14 04:50:14;;;;;;;29.33;16.45;;;154.30;2252.80;;;;;;5017408;28;20029;-72
2024/03/14 04:52:40;;;;;;;31.08;16.42;;;154.20;2252.80;;;;;;5044539;28;20476;-71
2024/03/14 04:55:09;;;;;;;34.03;17.42;;;154.20;2252.80;;;;;;5038906;28;20034;-71
2024/03/14 04:57:35;;;;;;;32.47;18.38;;;154.20;2252.80;;;;;;5029894;28;20034;-74
2024/03/14 05:00:10;;;;;;;34.47;18.52;;;154.20;2252.80;;;;;;5050386;28;20484;-71
2024/03/14 05:02:36;;;;;;;;;;;154.20;2252.80;;;;;;5031638;28;20017;-74
2024/03/14 05:05:04;;;;;;;31.65;17.00;;;154.20;2252.80;;;;;;5009864;28;19912;-78
2024/03/14 05:07:30;;;;;;;29.80;16.75;;;154.20;2252.80;;;;;;5030435;28;20424;-79
2024/03/14 05:09:56;;;;;;;31.23;17.25;;;154.20;2252.80;;;;;;5026513;28;20042;-76
2024/03/14 05:12:22;;;;;;;33.40;17.45;;;154.30;2252.80;;;;;;5038027;28;20033;-79
2024/03/14 05:14:49;;;;;;;29.98;16.58;;;154.30;2252.80;;;;;;5031789;28;20386;-76
2024/03/14 05:17:15;;;;;;;32.53;17.17;;;154.40;2252.80;;;;;;5032103;28;20472;-78
2024/03/14 05:19:40;;;;;;;32.92;18.00;;;154.40;2252.80;;;;;;5043570;28;20021;-74
2024/03/14 05:22:06;;;;;;;37.97;21.85;;;154.40;2252.80;;;;;;5043894;28;20554;-78
2024/03/14 05:24:36;;;;;;;39.10;22.63;;;154.40;2252.80;;;;;;5044410;28;20017;-74
2024/03/14 05:27:02;;;;;;;32.22;17.73;;;154.40;2252.80;;;;;;5052071;28;20059;-78
2024/03/14 05:29:28;;;;;;;33.05;17.75;;;154.10;2252.80;;;;;;5043422;28;20022;-77
2024/03/14 05:31:54;;;;;;;32.85;17.85;;;;;;;;;;5044641;28;20407;-77
2024/03/14 05:34:21;;;;;;;31.55;17.60;;;;;;;;;;5035656;28;20023;-77
2024/03/14 05:36:48;;;;;;;31.95;17.60;;;;;;;;;;5041441;28;20028;-75
2024/03/14 05:39:15;;;;;;;36.17;18.67;;;;;;;;;;5046180;28;20033;-77
2024/03/14 05:41:42;;;;;;;38.72;20.63;;;;;;;;;;5045309;28;20089;-79
2024/03/14 05:44:08;;;;;;;37.03;19.85;;;;;;;;;;5044362;28;20032;-73
2024/03/14 05:46:35;;;;;;;36.13;20.10;;;;;;;;;;5045132;28;20546;-79
2024/03/14 05:49:01;;;;;;;32.95;17.90;;;179.60;2252.80;;;;;;5065883;28;20038;-72
2024/03/14 05:51:27;;;;;;;34.25;19.75;;;179.50;2252.80;;;;;;5051937;28;20033;-77
2024/03/14 05:53:53;;;;;;;38.13;20.98;;;179.70;2252.80;;;;;;5048122;28;20646;-78
2024/03/14 05:56:19;;;;;;;42.95;22.25;;;179.70;2252.80;;;;;;5053778;28;20022;-75
2024/03/14 05:58:45;;;;;;;33.88;18.10;;;180.00;2252.80;;;;;;5054859;28;20052;-76
2024/03/14 06:01:11;;;;;;;30.40;16.50;;;179.90;2252.80;;;;;;5055468;28;20456;-76
2024/03/14 06:03:42;;;;;;;26.80;14.93;;;;;;;;;;5055710;28;20041;-76
2024/03/14 06:06:09;;;;;;;26.17;14.25;;;282.00;2278.40;;;;;;5055229;28;20518;-75
2024/03/14 06:08:35;;;;;;;27.55;15.93;;;359.30;2278.40;;;;;;5052308;28;20048;-75
2024/03/14 06:11:05;;;;;;;27.08;15.27;;;;;;;;;;5053525;28;20029;-78
2024/03/14 06:13:32;;;;;;;25.30;14.52;;;;;;;;;;5050837;28;20025;-77
2024/03/14 06:15:58;;;;;;;27.08;16.13;;;435.70;1817.60;;;;;;5052196;28;20782;-74
2024/03/14 06:18:24;;;;;;;24.63;15.13;;;;;;;;;;5043661;28;20026;-74
2024/03/14 06:20:51;;;;;;;23.77;15.20;;;461.30;1715.20;;;;;;5052782;28;20108;-77
2024/03/14 06:23:17;;;;;;;48.83;26.55;;;435.50;1715.20;;;;;;5050653;28;20453;-74
2024/03/14 06:25:43;;;;;;;87.35;37.80;;;461.20;1740.80;;;;;;5046024;28;20013;-78
2024/03/14 06:28:10;;;;;;;26.33;16.75;;;461.70;1638.40;;;;;;5050903;28;20025;-76
2024/03/14 06:30:36;;;;;;;27.10;17.38;;;;;;;;;;5053803;28;20085;-73
2024/03/14 06:33:02;;;;;;;33.97;22.15;;;512.90;1484.80;;;;;;5050282;28;20034;-76
2024/03/14 06:38:51;;;;;;;21.95;14.38;;;538.40;1433.60;;;;;;5054018;28;20079;-74
2024/03/14 06:41:17;;;;;;;20.95;13.45;;;;;;;;;;5053926;28;20028;-77
2024/03/14 06:43:43;;;;;;;23.73;15.85;;;;;;;;;;5053614;28;20044;-76
2024/03/14 06:46:12;;;;;;;46.13;29.25;;;;;;;;;;5052358;28;20518;-78
2024/03/14 06:48:40;;;;;;;23.90;16.13;;;;;;;;;;5052597;28;20028;-77
2024/03/14 06:51:06;;;;;;;18.88;13.30;;;;;;;;;;5042826;28;20367;-79
2024/03/14 06:53:32;;;;;;;23.08;14.55;;;;;;;;;;5038892;28;20475;-76
2024/03/14 06:55:58;;;;;;;19.33;13.00;;;;;;;;;;5042779;28;20497;-79
2024/03/14 06:58:25;;;;;;;20.48;12.63;;;;;;;;;;5038140;28;20025;-77
2024/03/14 07:00:51;;;;;;;20.67;13.20;;;691.30;1126.40;;;;;;5039637;28;20479;-76
2024/03/14 07:03:17;;;;;;;21.95;14.48;;;691.30;1100.80;;;;;;5039915;28;20456;-79
2024/03/14 07:08:48;;;;;;;21.48;14.13;;;717.20;1075.20;;;;;;5039349;28;20083;-73
2024/03/14 07:11:15;;;;;;;17.98;12.23;;;717.40;1049.60;;;;;;5037018;28;20047;-78
2024/03/14 07:13:48;;;;;;;20.75;13.43;;;692.00;1049.60;;;;;;5037655;28;20453;-78
2024/03/14 07:16:16;;;;;;;20.10;13.07;;;717.10;1075.20;;;;;;5033870;28;20476;-77
2024/03/14 07:18:43;;;;;;;18.40;12.43;;;717.30;1024.00;;;;;;5037163;28;20028;-78
2024/03/14 07:21:12;;;;;;;20.02;13.13;;;717.60;1024.00;;;;;;5033207;28;20460;-76
2024/03/14 07:23:38;;;;;;;19.50;12.55;;;;;;;;;;5034977;28;20491;-77
2024/03/14 07:26:05;;;;;;;18.75;11.98;;;742.80;972.80;;;;;;5034986;28;20460;-77
2024/03/14 07:28:33;;;;;;;16.30;11.13;;;742.40;998.40;;;;;;5035392;28;20476;-79
2024/03/14 07:30:59;;;;;;;18.05;12.02;;;742.70;998.40;;;;;;5036049;28;20020;-78
2024/03/14 07:33:27;;;;;;;35.55;20.77;;;768.60;972.80;;;;;;5035825;28;20526;-79
2024/03/14 07:39:15;;;;;;;18.33;11.45;;;;;;;;;;5036011;28;20127;-79
2024/03/14 07:41:44;;;;;;;22.23;13.93;;;666.40;1049.60;;;;;;5036086;28;20476;-79
2024/03/14 07:44:10;;;;;;;42.65;27.45;;;615.30;1126.40;;;;;;5038083;28;20465;-80
2024/03/14 07:46:37;;;;;;;19.75;12.35;;;564.10;1203.20;;;;;;5041910;28;20479;-79
2024/03/14 07:49:05;;;;;;;38.38;22.65;;;537.80;1305.60;;;;;;5039285;28;20444;-79
2024/03/14 07:51:34;;;;;;;20.00;12.70;;;487.20;1382.40;;;;;;5037485;28;20465;-81
2024/03/14 07:54:11;;;;;;;25.38;16.33;;;486.40;1459.20;;;;;;5037120;28;20487;-80
2024/03/14 07:56:37;;;;;;;21.23;14.27;;;461.10;1484.80;;;;;;5040750;28;20472;-80
2024/03/14 07:59:05;;;;;;;23.08;13.80;;;435.90;1536.00;;;;;;5043593;28;20448;-79
2024/03/14 08:01:33;;;;;;;29.67;17.95;;;435.60;1587.20;;;;;;5040358;28;20029;-82
2024/03/14 08:04:00;;;;;;;19.25;13.00;;;410.50;1587.20;;;;;;5036053;28;20464;-80
2024/03/14 08:06:27;;;;;;;18.42;11.85;;;435.30;1638.40;;;;;;5035668;28;20476;-81
2024/03/14 08:08:54;;;;;;;19.38;11.27;;;461.20;1587.20;;;;;;5035066;28;20546;-79
2024/03/14 08:11:22;;;;;;;18.38;11.73;;;461.60;1510.40;;;;;;5035145;28;20062;-80
2024/03/14 08:13:50;;;;;;;21.25;13.27;;;461.50;1536.00;;;;;;5018102;28;20476;-79
2024/03/14 08:16:22;;;;;;;18.45;12.52;;;461.70;1510.40;;;;;;5035416;28;20021;-78
2024/03/14 08:18:49;;;;;;;28.13;16.50;;;486.90;1510.40;;;;;;5035300;28;20100;-82
2024/03/14 08:24:19;;;;;;;22.70;12.93;;;;;;;;;;5033669;28;20028;-79
2024/03/14 08:26:46;;;;;;;24.67;14.10;;;;;;;;;;5033536;28;20539;-71
2024/03/14 08:29:13;;;;;;;21.65;12.52;;;512.20;1408.00;;;;;;5033788;28;20444;-76
2024/03/14 08:31:41;;;;;;;20.90;12.45;;;512.00;1408.00;;;;;;5033429;28;20583;-70
2024/03/14 08:34:08;;;;;;;22.55;13.05;;;486.90;1408.00;;;;;;5033248;28;20483;-78
2024/03/14 08:39:55;;;;;;;16.25;10.20;;;486.60;1433.60;;;;;;5033468;28;20033;-77
2024/03/14 08:42:31;;;;;;;16.95;10.32;;;461.50;1433.60;;;;;;5032764;28;20404;-79
2024/03/14 08:45:00;;;;;;;16.85;10.80;;;461.40;1433.60;;;;;;5033699;28;20448;-79
2024/03/14 08:47:27;;;;;;;16.50;10.07;;;461.00;1484.80;;;;;;5033529;28;20086;-79
2024/03/14 08:49:54;;;;;;;19.13;11.35;;;461.10;1510.40;;;;;;5032029;28;20360;-78
2024/03/14 08:52:26;;;;;;;17.42;10.15;;;436.00;1510.40;;;;;;5033426;28;20522;-78
2024/03/14 08:54:53;;;;;;;18.42;11.48;;;435.70;1510.40;;;;;;5033545;28;20453;-77
2024/03/14 08:57:22;;;;;;;16.50;10.23;;;435.70;1561.60;;;;;;5033237;28;20531;-70
2024/03/14 08:59:53;;;;;;;14.60;9.80;;;435.70;1587.20;;;;;;5033865;28;20081;-80
2024/03/14 09:02:23;;;;;;;14.05;10.07;;;436.00;1612.80;;;;;;5035609;28;20460;-82
2024/03/14 09:04:51;;;;;;;17.13;10.15;;;461.60;1561.60;;;;;;5035461;28;20476;-81
2024/03/14 09:07:18;;;;;;;14.40;9.25;;;486.40;1766.40;;;;;;5035101;28;20482;-81
2024/03/14 09:09:48;;;;;;;15.98;9.48;;;461.50;1433.60;;;;;;5037333;28;20049;-83
2024/03/14 09:12:14;;;;;;;15.52;9.45;;;461.40;1408.00;;;;;;5038169;28;20468;-83
2024/03/14 09:14:43;;;;;;;16.13;9.55;;;436.10;1382.40;;;;;;5042627;28;20525;-78
2024/03/14 09:17:11;;;;;;;14.80;9.52;;;460.80;1433.60;;;;;;5039612;28;20500;-74
2024/03/14 09:19:39;;;;;;;18.23;9.52;;;461.00;1433.60;;;;;;5039157;28;20472;-74
2024/03/14 09:22:06;;;;;;;17.27;10.55;;;460.90;1433.60;;;;;;5040895;28;20519;-75
2024/03/14 09:24:33;;;;;;;18.00;10.73;;;460.80;1433.60;;;;;;5040897;28;20048;-74
2024/03/14 09:27:02;;;;;;;19.55;11.30;;;436.00;1433.60;;;;;;5042792;28;20014;-75
2024/03/14 09:29:29;;;;;;;17.90;10.93;;;436.10;1433.60;;;;;;5046457;28;20463;-75
2024/03/14 09:31:56;;;;;;;23.17;11.73;;;460.80;1484.80;;;;;;5041780;28;20490;-79
2024/03/14 09:34:23;;;;;;;16.52;10.43;;;460.80;1510.40;;;;;;5041396;28;20400;-84
2024/03/14 09:40:15;;;;;;;15.70;10.18;;;435.70;1536.00;;;;;;5043976;28;20024;-80
2024/03/14 09:42:47;;;;;;;18.35;11.55;;;435.50;1587.20;;;;;;5042604;28;20460;-73
2024/03/14 09:45:14;;;;;;;13.50;9.90;;;410.50;1612.80;;;;;;5037908;28;20484;-72
2024/03/14 09:47:41;;;;;;;15.73;10.00;;;410.50;1638.40;;;;;;5036881;28;20500;-74
2024/03/14 09:50:17;;;;;;;16.10;10.30;;;410.40;1638.40;;;;;;5034696;28;20413;-74
2024/03/14 09:52:47;;;;;;;16.90;10.52;;;410.30;1638.40;;;;;;5034027;28;20035;-75
2024/03/14 09:55:14;;;;;;;15.32;10.35;;;410.10;1664.00;;;;;;5038669;28;20475;-75
2024/03/14 09:57:40;;;;;;;14.88;9.25;;;410.10;1664.00;;;;;;5044989;28;20477;-76
2024/03/14 10:00:11;;;;;;;15.13;10.10;;;410.10;1664.00;;;;;;5045867;28;20465;-82
2024/03/14 10:02:40;;;;;;;16.60;10.07;;;410.10;1664.00;;;;;;5043704;28;20429;-76
2024/03/14 10:05:12;;;;;;;15.30;9.75;;;410.20;1664.00;;;;;;5043322;28;20512;-71
2024/03/14 10:07:39;;;;;;;16.33;10.63;;;410.40;1664.00;;;;;;5043129;28;20360;-70
2024/03/14 10:10:06;;;;;;;15.73;9.98;;;410.20;1638.40;;;;;;5041779;28;20523;-71
2024/03/14 10:12:33;;;;;;;16.05;9.98;;;410.00;1664.00;;;;;;5040969;28;20453;-71
2024/03/14 10:15:00;;;;;;;14.80;10.20;;;409.90;1689.60;;;;;;5038673;28;20457;-75
2024/03/14 10:17:31;;;;;;;15.30;10.43;;;409.80;1664.00;;;;;;5037417;28;20014;-71
2024/03/14 10:20:08;;;;;;;17.67;10.60;;;409.80;1689.60;;;;;;5037217;28;20480;-72
2024/03/14 10:26:09;;;;;;;14.48;9.55;;;409.80;1715.20;;;;;;5038568;28;20024;-74
2024/03/14 10:28:35;;;;;;;13.13;9.38;;;410.20;1664.00;;;;;;5042022;28;20522;-77
2024/03/14 10:31:05;;;;;;;16.10;9.30;;;410.40;1638.40;;;;;;5040912;28;20028;-72
2024/03/14 10:33:37;;;;;;;15.70;9.23;;;435.20;1638.40;;;;;;5039525;28;20519;-80
2024/03/14 10:36:06;;;;;;;15.57;9.95;;;435.40;1638.40;;;;;;5040745;28;20514;-78
2024/03/14 10:38:36;;;;;;;16.42;10.07;;;435.40;1612.80;;;;;;5025228;28;20037;-76
2024/03/14 10:41:12;;;;;;;13.35;9.25;;;435.40;1612.80;;;;;;5017123;28;20025;-78
2024/03/14 10:43:40;;;;;;;14.60;8.93;;;435.30;1612.80;;;;;;5034651;28;20036;-73
2024/03/14 10:46:13;;;;;;;13.38;8.80;;;435.40;1612.80;;;;;;5028686;28;20482;-76
2024/03/14 10:48:39;;;;;;;16.13;9.38;;;435.30;1587.20;;;;;;5038167;28;20549;-73
2024/03/14 10:51:06;;;;;;;14.90;9.68;;;410.20;1612.80;;;;;;5016694;28;20042;-80
2024/03/14 10:53:34;;;;;;;14.43;9.98;;;410.10;1612.80;;;;;;5023920;28;20635;-75
2024/03/14 10:56:02;;;;;;;18.65;10.90;;;410.40;1587.20;;;;;;5023013;28;20457;-77
2024/03/14 10:58:31;;;;;;;18.50;11.85;;;410.50;1587.20;;;;;;5023788;28;20022;-78
2024/03/14 11:00:59;;;;;;;13.65;9.35;;;435.30;1561.60;;;;;;5014573;28;20658;-75
2024/03/14 11:03:27;;;;;;;16.58;9.43;;;435.40;1510.40;;;;;;5011608;28;20021;-72
2024/03/14 11:05:56;;;;;;;13.30;9.10;;;435.90;1510.40;;;;;;5022570;28;20472;-75
2024/03/14 11:08:23;;;;;;;14.95;9.57;;;436.10;1510.40;;;;;;5029976;28;20068;-77
2024/03/14 11:10:54;;;;;;;15.07;9.57;;;461.20;1484.80;;;;;;5034296;28;20378;-77
2024/03/14 11:13:25;;;;;;;12.95;8.98;;;461.30;1459.20;;;;;;5033013;28;20049;-74
2024/03/14 11:15:54;;;;;;;15.80;9.90;;;461.40;1484.80;;;;;;5017314;28;20047;-76
2024/03/14 11:18:25;;;;;;;15.48;10.15;;;460.80;1510.40;;;;;;5033045;28;20034;-74
2024/03/14 11:20:55;;;;;;;13.45;9.25;;;435.90;1510.40;;;;;;5040867;28;20033;-82
2024/03/14 11:23:25;;;;;;;15.18;9.43;;;435.70;1536.00;;;;;;5041810;28;20049;-74
2024/03/14 11:25:59;;;;;;;16.10;9.82;;;435.70;1536.00;;;;;;5029020;28;20109;-79
2024/03/14 11:28:28;;;;;;;16.15;9.98;;;435.70;1536.00;;;;;;5037000;28;20025;-74
2024/03/14 11:30:55;;;;;;;15.93;10.23;;;435.40;1536.00;;;;;;5046173;28;20029;-82
2024/03/14 11:33:23;;;;;;;15.20;9.80;;;435.40;1561.60;;;;;;5041722;28;20092;-78
2024/03/14 11:35:52;;;;;;;13.75;9.80;;;435.30;1561.60;;;;;;5040569;28;20053;-79
2024/03/14 11:38:21;;;;;;;14.45;9.75;;;410.40;1587.20;;;;;;5037235;28;20045;-74
2024/03/14 11:40:47;;;;;;;13.48;8.65;;;410.30;1587.20;;;;;;5027602;28;20025;-74
2024/03/14 11:43:17;;;;;;;15.30;9.48;;;410.30;1587.20;;;;;;5025645;28;20030;-76
2024/03/14 11:45:43;;;;;;;13.60;8.73;;;410.40;1587.20;;;;;;5026277;28;20034;-76
2024/03/14 11:48:19;;;;;;;15.95;9.68;;;410.40;1587.20;;;;;;5036595;28;20044;-75
2024/03/14 11:50:47;;;;;;;13.27;8.93;;;410.40;1587.20;;;;;;5032084;28;20045;-77
2024/03/14 11:53:13;;;;;;;16.58;9.23;;;435.20;1561.60;;;;;;5038953;28;20029;-75
2024/03/14 11:55:38;;;;;;;12.82;8.65;;;410.40;1536.00;;;;;;5040587;28;20419;-81
2024/03/14 11:58:17;;;;;;;13.40;8.68;;;435.30;1536.00;;;;;;5040994;28;20041;-81
2024/03/14 12:00:47;;;;;;;12.25;8.27;;;435.50;1510.40;;;;;;5028719;28;20053;-75
2024/03/14 12:03:13;;;;;;;13.45;8.38;;;435.40;1484.80;;;;;;5038725;28;20057;-77
2024/03/14 12:05:44;;;;;;;11.07;8.20;;;435.30;1484.80;;;;;;5023358;28;20083;-80
2024/03/14 12:08:15;;;;;;;12.77;8.27;;;410.50;1536.00;;;;;;5033104;28;20831;-76
2024/03/14 12:10:42;;;;;;;13.80;8.43;;;435.20;1536.00;;;;;;5040771;28;20032;-79
2024/03/14 12:13:15;;;;;;;13.45;8.63;;;410.50;1536.00;;;;;;5042705;28;20365;-77
2024/03/14 12:15:41;;;;;;;13.85;9.13;;;410.00;1561.60;;;;;;5040061;28;20448;-80
2024/03/14 12:18:11;;;;;;;12.18;8.60;;;410.10;1561.60;;;;;;5030549;28;20451;-77
2024/03/14 12:20:47;;;;;;;11.50;7.60;;;435.20;1561.60;;;;;;5033628;28;20147;-80
2024/03/14 12:23:12;;;;;;;12.57;8.20;;;460.80;1536.00;;;;;;5030120;28;20029;-77
2024/03/14 12:25:42;;;;;;;10.68;7.43;;;460.80;1484.80;;;;;;5032769;28;20071;-78
2024/03/14 12:28:09;;;;;;;15.00;8.57;;;460.90;1484.80;;;;;;5029208;28;20029;-84
2024/03/14 12:30:39;;;;;;;12.80;8.52;;;436.10;1459.20;;;;;;5023166;28;20127;-84
2024/03/14 12:33:08;;;;;;;12.95;8.27;;;436.10;1459.20;;;;;;5030537;28;20052;-78
2024/03/14 12:35:34;;;;;;;11.65;8.00;;;436.10;1484.80;;;;;;5033812;28;20029;-83
2024/03/14 12:38:02;;;;;;;11.20;7.82;;;461.60;1484.80;;;;;;5025895;28;20034;-84